»·PEaware :: N911VU KLBF-KGCN

N911VU :: KLBF-KGCN

FLIGHT INFORMATION

Flight Status: Arrived
Operator: Privately registered:
United States
More flights under this callsign
Pilot: Austin P. (20876)
Aircraft: SOCATA TBM-900
(TBM9)
More flights by this aircraft type
Origin: KLBF North Platte Regl-Bird
United States
Destination: KGCN Grand Canyon Natl Park
United States
More flights between these airports :: More routes between these airports
Route: +AKO PUB V83 GOSIP V210 RSK
File this flight plan on PilotEdge
Remarks:
Altitude:
(Current/Filed)
22,000ft
Speed:
(Current/Filed)
220kts
Departed: 12-Dec-18 12:20 PM
Arrived: 12-Dec-18 03:12 PM
Distance/Time
Traveled:
620nm/2:52
Distance/Time
To Go:
Arrived

Flight Plot

Page will automatically refresh every two minutes.

Flight plan parsing failed; only flown route is shown


Map Options




Map Legend


Flown Route
Filed Route
Departure Airport
Arrival Airport
Navaid (VOR, NDB)
Fix

Horizontal Profiles

Position Reports

Time Latitude Longitude Heading Altitude Ground
Speed
12-Dec-18 12:18 41.127455 -100.684773 58 2769ft 8kts
12-Dec-18 12:19 41.129158 -100.684649 305 2770ft 46kts
12-Dec-18 12:20 41.144463 -100.718525 303 3838ft 133kts
12-Dec-18 12:21 41.171442 -100.760779 305 4960ft 170kts
12-Dec-18 12:22 41.157219 -100.820046 240 5358ft 191kts
12-Dec-18 12:23 41.130861 -100.883694 241 5504ft 203kts
12-Dec-18 12:24 41.104053 -100.949164 241 6034ft 193kts
12-Dec-18 12:25 41.114045 -101.010445 245 7462ft 183kts
12-Dec-18 12:26 41.081058 -101.059960 238 8968ft 177kts
12-Dec-18 12:27 41.056320 -101.115156 243 10437ft 173kts
12-Dec-18 12:28 41.031966 -101.172945 243 11954ft 184kts
12-Dec-18 12:29 41.006920 -101.232206 242 13443ft 185kts
12-Dec-18 12:30 40.981192 -101.292937 242 14948ft 192kts
12-Dec-18 12:31 40.954986 -101.354648 241 16431ft 193kts
12-Dec-18 12:32 40.928934 -101.415858 241 17904ft 190kts
12-Dec-18 12:33 40.903253 -101.476102 241 19385ft 191kts
12-Dec-18 12:34 40.876708 -101.538246 241 20891ft 197kts
12-Dec-18 12:35 40.848536 -101.604082 241 21779ft 228kts
12-Dec-18 12:36 40.814788 -101.682712 240 21767ft 261kts
12-Dec-18 12:37 40.778086 -101.768006 240 21758ft 271kts
12-Dec-18 12:38 40.740534 -101.855036 240 21756ft 275kts
12-Dec-18 12:39 40.702654 -101.942577 240 21755ft 276kts
12-Dec-18 12:40 40.664607 -102.030254 240 21753ft 276kts
12-Dec-18 12:41 40.626494 -102.117827 240 21752ft 276kts
12-Dec-18 12:42 40.588287 -102.205359 240 21752ft 276kts
12-Dec-18 12:43 40.550128 -102.292537 240 21752ft 276kts
12-Dec-18 12:44 40.511781 -102.379892 240 21751ft 276kts
12-Dec-18 12:45 40.473396 -102.467084 240 21751ft 276kts
12-Dec-18 12:46 40.434948 -102.554172 240 21750ft 275kts
12-Dec-18 12:47 40.396423 -102.641188 240 21750ft 275kts
12-Dec-18 12:48 40.358103 -102.727490 240 21753ft 276kts
12-Dec-18 12:49 40.319507 -102.814182 240 21753ft 276kts
12-Dec-18 12:50 40.280674 -102.901150 240 21753ft 276kts
12-Dec-18 12:51 40.241867 -102.987785 240 21754ft 276kts
12-Dec-18 12:52 40.203369 -103.073469 241 21752ft 272kts
12-Dec-18 12:53 40.165339 -103.157910 243 21752ft 266kts
12-Dec-18 12:54 40.104431 -103.214808 215 21748ft 276kts
12-Dec-18 12:55 40.036771 -103.261743 215 21751ft 275kts
12-Dec-18 12:56 39.971188 -103.306898 215 22538ft 259kts
12-Dec-18 12:57 39.908645 -103.349879 215 23492ft 251kts
12-Dec-18 12:58 39.845530 -103.393206 215 23756ft 267kts
12-Dec-18 12:59 39.778692 -103.438931 214 23757ft 276kts
12-Dec-18 13:00 39.710291 -103.485610 214 23761ft 279kts
12-Dec-18 13:01 39.641507 -103.532463 214 23769ft 280kts
12-Dec-18 13:02 39.572503 -103.579348 214 23765ft 280kts
12-Dec-18 13:03 39.503552 -103.626105 214 23764ft 280kts
12-Dec-18 13:04 39.434986 -103.672484 214 23776ft 281kts
12-Dec-18 13:05 39.365607 -103.719332 214 23773ft 282kts
12-Dec-18 13:06 39.296067 -103.766168 214 23772ft 282kts
12-Dec-18 13:07 39.226435 -103.812985 213 23774ft 282kts
12-Dec-18 13:08 39.157735 -103.859020 213 23742ft 276kts
12-Dec-18 13:09 39.090155 -103.904230 213 23741ft 273kts
12-Dec-18 13:10 39.022816 -103.949197 213 23743ft 272kts
12-Dec-18 13:11 38.955284 -103.994204 212 23750ft 276kts
12-Dec-18 13:12 38.886999 -104.039596 211 23761ft 281kts
12-Dec-18 13:13 38.817050 -104.085958 211 23769ft 285kts
12-Dec-18 13:14 38.746535 -104.132616 211 23775ft 286kts
12-Dec-18 13:15 38.675790 -104.179324 211 23769ft 287kts
12-Dec-18 13:16 38.604831 -104.226071 211 23749ft 287kts
12-Dec-18 13:17 38.534039 -104.272600 211 23733ft 287kts
12-Dec-18 13:18 38.463058 -104.319154 211 23732ft 287kts
12-Dec-18 13:19 38.392003 -104.365649 211 23732ft 287kts
12-Dec-18 13:20 38.321057 -104.411971 211 23732ft 287kts
12-Dec-18 13:21 38.244600 -104.441901 196 23733ft 293kts
12-Dec-18 13:22 38.164546 -104.462033 196 23731ft 293kts
12-Dec-18 13:23 38.084719 -104.482025 196 23731ft 293kts
12-Dec-18 13:24 38.004553 -104.502046 196 23731ft 293kts
12-Dec-18 13:25 37.924812 -104.521918 196 23730ft 293kts
12-Dec-18 13:26 37.845043 -104.541762 196 23742ft 293kts
12-Dec-18 13:27 37.765083 -104.561613 196 23751ft 293kts
12-Dec-18 13:29 37.685191 -104.581398 196 23766ft 293kts
12-Dec-18 13:30 37.618309 -104.623550 248 23803ft 274kts
12-Dec-18 13:31 37.595490 -104.714048 254 23801ft 275kts
12-Dec-18 13:32 37.574997 -104.807179 255 23800ft 276kts
12-Dec-18 13:33 37.554484 -104.900608 255 23802ft 276kts
12-Dec-18 13:34 37.534045 -104.993361 255 23844ft 275kts
12-Dec-18 13:35 37.513541 -105.086042 254 23888ft 275kts
12-Dec-18 13:36 37.492884 -105.178973 254 23905ft 275kts
12-Dec-18 13:37 37.472228 -105.271559 254 23908ft 275kts
12-Dec-18 13:38 37.451441 -105.364356 254 23907ft 275kts
12-Dec-18 13:39 37.430641 -105.456827 254 23905ft 275kts
12-Dec-18 13:40 37.409716 -105.549426 254 23905ft 275kts
12-Dec-18 13:41 37.388704 -105.642103 254 23906ft 275kts
12-Dec-18 13:42 37.367903 -105.733492 254 23911ft 276kts
12-Dec-18 13:43 37.346385 -105.826332 253 23908ft 276kts
12-Dec-18 13:44 37.323288 -105.918177 252 23907ft 276kts
12-Dec-18 13:45 37.300045 -106.010054 252 23908ft 276kts
12-Dec-18 13:46 37.276766 -106.101731 252 23909ft 276kts
12-Dec-18 13:47 37.253420 -106.193405 252 23904ft 276kts
12-Dec-18 13:47 37.233925 -106.269692 252 23908ft 276kts
12-Dec-18 13:49 37.206542 -106.376389 252 23918ft 275kts
12-Dec-18 13:50 37.182986 -106.467796 252 23946ft 275kts
12-Dec-18 13:50 37.163441 -106.543440 252 23968ft 275kts
12-Dec-18 13:51 37.139824 -106.634488 252 23977ft 275kts
12-Dec-18 13:53 37.112509 -106.739391 252 23983ft 276kts
12-Dec-18 13:53 37.092612 -106.815529 252 23982ft 276kts
12-Dec-18 13:54 37.068685 -106.906789 253 23981ft 276kts
12-Dec-18 13:56 37.040697 -107.013134 253 23983ft 273kts
12-Dec-18 13:56 37.021061 -107.087523 254 23978ft 271kts
12-Dec-18 13:57 36.997436 -107.176719 254 23979ft 270kts
12-Dec-18 13:58 36.973757 -107.265783 255 23980ft 269kts
12-Dec-18 13:59 36.950185 -107.354202 255 23984ft 269kts
12-Dec-18 14:00 36.926514 -107.442692 255 23990ft 268kts
12-Dec-18 14:01 36.902758 -107.531168 255 23996ft 268kts
12-Dec-18 14:02 36.879249 -107.618433 255 23995ft 268kts
12-Dec-18 14:03 36.855629 -107.705855 254 24000ft 269kts
12-Dec-18 14:04 36.831615 -107.794426 255 24001ft 269kts
12-Dec-18 14:05 36.807519 -107.882930 254 23998ft 270kts
12-Dec-18 14:06 36.783358 -107.971396 254 23999ft 269kts
12-Dec-18 14:07 36.759128 -108.059808 254 23999ft 269kts
12-Dec-18 14:08 36.739427 -108.149511 260 23971ft 268kts
12-Dec-18 14:09 36.723162 -108.240240 260 23968ft 268kts
12-Dec-18 14:10 36.706932 -108.330650 260 23969ft 267kts
12-Dec-18 14:11 36.690637 -108.420931 260 23969ft 267kts
12-Dec-18 14:12 36.674258 -108.511319 260 23969ft 267kts
12-Dec-18 14:13 36.657831 -108.601565 260 23965ft 267kts
12-Dec-18 14:14 36.641330 -108.691763 259 23494ft 270kts
12-Dec-18 14:15 36.624539 -108.783145 259 23011ft 271kts
12-Dec-18 14:16 36.607714 -108.874298 259 22523ft 271kts
12-Dec-18 14:17 36.590738 -108.965840 259 22028ft 271kts
12-Dec-18 14:18 36.573711 -109.057106 260 21531ft 270kts
12-Dec-18 14:19 36.556836 -109.147268 261 21020ft 265kts
12-Dec-18 14:20 36.540260 -109.235508 262 20502ft 260kts
12-Dec-18 14:21 36.523786 -109.322947 262 19974ft 259kts
12-Dec-18 14:22 36.507252 -109.410203 262 19444ft 259kts
12-Dec-18 14:23 36.490651 -109.497384 261 18927ft 260kts
12-Dec-18 14:24 36.473921 -109.584885 261 18398ft 260kts
12-Dec-18 14:25 36.457329 -109.671239 261 18037ft 256kts
12-Dec-18 14:26 36.440930 -109.756312 261 18041ft 251kts
12-Dec-18 14:27 36.424680 -109.840269 261 18045ft 249kts
12-Dec-18 14:28 36.408420 -109.923943 261 18047ft 249kts
12-Dec-18 14:29 36.392129 -110.007445 261 18044ft 249kts
12-Dec-18 14:30 36.375665 -110.091519 261 17858ft 255kts
12-Dec-18 14:31 36.358783 -110.177319 261 17363ft 255kts
12-Dec-18 14:32 36.341905 -110.262774 260 16851ft 254kts
12-Dec-18 14:33 36.325091 -110.347549 260 16340ft 254kts
12-Dec-18 14:34 36.308121 -110.432798 260 15825ft 254kts
12-Dec-18 14:35 36.291095 -110.517987 260 15306ft 255kts
12-Dec-18 14:36 36.273937 -110.603479 260 14783ft 256kts
12-Dec-18 14:37 36.256811 -110.688463 259 14284ft 256kts
12-Dec-18 14:38 36.239571 -110.773677 259 13802ft 252kts
12-Dec-18 14:39 36.222600 -110.857265 259 13309ft 248kts
12-Dec-18 14:40 36.205714 -110.940037 259 12821ft 248kts
12-Dec-18 14:41 36.188785 -111.022756 259 12330ft 247kts
12-Dec-18 14:42 36.171829 -111.105274 260 11890ft 246kts
12-Dec-18 14:43 36.155311 -111.185453 260 11889ft 238kts
12-Dec-18 14:44 36.139003 -111.264285 260 11896ft 236kts
12-Dec-18 14:45 36.122644 -111.343070 260 11910ft 236kts
12-Dec-18 14:46 36.106288 -111.421562 260 11939ft 235kts
12-Dec-18 14:47 36.089987 -111.499514 260 11968ft 235kts
12-Dec-18 14:48 36.073554 -111.577801 260 11990ft 235kts
12-Dec-18 14:49 36.057266 -111.655144 260 11999ft 235kts
12-Dec-18 14:50 36.040704 -111.733505 260 12000ft 236kts
12-Dec-18 14:51 36.023653 -111.813932 259 11247ft 245kts
12-Dec-18 14:52 36.006368 -111.895035 259 10471ft 236kts
12-Dec-18 14:53 35.991521 -111.964556 260 9612ft 193kts
12-Dec-18 14:54 35.978413 -112.025781 260 8986ft 166kts
12-Dec-18 14:55 35.973931 -112.073303 281 8492ft 120kts
12-Dec-18 14:56 35.979890 -112.107492 258 7818ft 74kts
12-Dec-18 14:57 35.967141 -112.130990 240 6836ft 84kts
12-Dec-18 14:58 35.947649 -112.151323 230 7228ft 112kts
12-Dec-18 14:59 35.930430 -112.121242 48 8293ft 178kts
12-Dec-18 15:00 35.966254 -112.091468 343 8271ft 136kts
12-Dec-18 15:01 35.974682 -112.122497 222 7298ft 93kts
12-Dec-18 15:02 35.957789 -112.140808 228 6677ft 79kts
12-Dec-18 15:03 35.930658 -112.161459 175 7792ft 170kts
12-Dec-18 15:04 35.936698 -112.109124 36 8959ft 200kts
12-Dec-18 15:05 35.979844 -112.065668 30 9371ft 184kts
12-Dec-18 15:06 36.009623 -112.067309 302 8907ft 102kts
12-Dec-18 15:07 36.000729 -112.094746 223 8193ft 101kts
12-Dec-18 15:08 35.979631 -112.117509 233 7282ft 97kts
12-Dec-18 15:09 35.959487 -112.139126 234 6641ft 85kts
12-Dec-18 15:10 35.950126 -112.149357 219 6580ft 41kts
12-Dec-18 15:11 35.947582 -112.150199 40 6575ft 18kts
12-Dec-18 15:12 35.950272 -112.146599 130 6591ft 8kts
12-Dec-18 15:13 35.950102 -112.146051 49 6596ft 0kts
12-Dec-18 15:14 35.950102 -112.146052 49 6596ft 0kts
12-Dec-18 15:15 35.950102 -112.146052 49 6596ft 0kts
12-Dec-18 15:16 35.950102 -112.146052 49 6596ft 0kts

Navigation Log

Ident Type
Flight plan parsing failed, navigation log unavailable